Time,TemperatureF,DewpointF,PressureIn,WindDirection,WindDirectionDegrees,WindSpeedMPH,WindSpeedGustMPH,Humidity,HourlyPrecipIn,Conditions,Clouds,dailyrainin,SoftwareType,DateUTC
2013-01-23 00:03:00,36.7,34.8,29.85,ENE,68,1.8,2.0,93,0.00,,,0.00,WUHU216HW,2013-01-23 08:03:00,
2013-01-23 00:08:00,36.7,34.8,29.85,South,180,0.4,1.8,93,0.00,,,0.00,WUHU216HW,2013-01-23 08:08:00,
2013-01-23 00:13:00,36.7,34.8,29.85,South,180,0.4,1.8,93,0.00,,,0.00,WUHU216HW,2013-01-23 08:13:00,
2013-01-23 00:18:00,36.7,34.8,29.86,SSW,203,4.0,4.0,93,0.00,,,0.00,WUHU216HW,2013-01-23 08:18:00,
2013-01-23 00:23:00,36.9,34.7,29.86,SW,225,2.5,4.3,92,0.00,,,0.00,WUHU216HW,2013-01-23 08:23:00,
2013-01-23 00:28:00,36.9,34.7,29.86,SSE,158,0.9,4.3,92,0.00,,,0.00,WUHU216HW,2013-01-23 08:28:00,
2013-01-23 00:33:00,37.1,34.9,29.86,ENE,68,0.7,2.5,92,0.00,,,0.00,WUHU216HW,2013-01-23 08:33:00,
2013-01-23 00:38:00,37.1,34.9,29.85,ENE,68,0.0,2.5,92,0.00,,,0.00,WUHU216HW,2013-01-23 08:38:00,
2013-01-23 00:43:00,37.1,34.9,29.84,North,0,1.1,1.1,92,0.00,,,0.00,WUHU216HW,2013-01-23 08:43:00,
2013-01-23 00:48:00,37.1,34.9,29.85,SSW,203,1.8,2.5,92,0.00,,,0.00,WUHU216HW,2013-01-23 08:48:00,
2013-01-23 00:53:00,37.1,34.9,29.85,NE,45,0.7,4.0,92,0.00,,,0.00,WUHU216HW,2013-01-23 08:53:00,
2013-01-23 00:58:00,37.3,35.4,29.85,SSE,158,2.2,4.0,93,0.00,,,0.00,WUHU216HW,2013-01-23 08:58:00,
2013-01-23 01:03:00,37.3,35.4,29.86,SE,135,0.9,3.1,93,0.00,,,0.00,WUHU216HW,2013-01-23 09:03:00,
2013-01-23 01:08:00,37.4,35.6,29.83,SW,225,3.4,3.4,93,0.00,,,0.00,WUHU216HW,2013-01-23 09:08:00,
2013-01-23 01:13:00,37.6,35.7,29.83,NNE,23,0.7,3.4,93,0.00,,,0.00,WUHU216HW,2013-01-23 09:13:00,
2013-01-23 01:18:00,37.8,35.9,29.84,SSE,158,2.0,3.4,93,0.00,,,0.00,WUHU216HW,2013-01-23 09:18:00,
2013-01-23 01:23:00,37.8,35.9,29.84,NNE,23,0.0,3.4,93,0.00,,,0.00,WUHU216HW,2013-01-23 09:23:00,
2013-01-23 01:28:00,37.8,35.9,29.84,SW,225,1.1,2.5,93,0.00,,,0.00,WUHU216HW,2013-01-23 09:28:00,
2013-01-23 01:33:00,37.8,35.9,29.87,East,90,5.4,5.4,93,0.00,,,0.00,WUHU216HW,2013-01-23 09:33:00,
2013-01-23 01:38:00,37.8,35.9,29.86,WSW,248,0.7,5.8,93,0.00,,,0.00,WUHU216HW,2013-01-23 09:38:00,
2013-01-23 01:43:00,37.8,35.9,29.85,West,270,1.8,5.8,93,0.00,,,0.00,WUHU216HW,2013-01-23 09:43:00,
2013-01-23 01:48:00,38.0,36.1,29.86,East,90,0.0,1.8,93,0.00,,,0.00,WUHU216HW,2013-01-23 09:48:00,
2013-01-23 01:53:00,38.0,36.1,29.85,SW,225,0.4,2.5,93,0.00,,,0.00,WUHU216HW,2013-01-23 09:53:00,
2013-01-23 01:58:00,38.2,36.3,29.86,WSW,248,1.1,2.5,93,0.00,,,0.00,WUHU216HW,2013-01-23 09:58:00,
2013-01-23 02:03:00,38.2,36.3,29.85,SSW,203,0.4,3.4,93,0.00,,,0.00,WUHU216HW,2013-01-23 10:03:00,
2013-01-23 02:08:00,38.3,36.2,29.86,SSW,203,6.3,6.3,92,0.00,,,0.00,WUHU216HW,2013-01-23 10:08:00,
2013-01-23 02:13:00,38.3,36.2,29.85,SW,225,3.8,6.3,92,0.00,,,0.00,WUHU216HW,2013-01-23 10:13:00,
2013-01-23 02:18:00,38.3,36.2,29.85,South,180,1.8,5.4,92,0.00,,,0.00,WUHU216HW,2013-01-23 10:18:00,
2013-01-23 02:23:00,38.3,36.2,29.87,WSW,248,0.4,2.7,92,0.00,,,0.00,WUHU216HW,2013-01-23 10:23:00,
2013-01-23 02:28:00,38.3,36.2,29.87,SW,225,1.3,2.7,92,0.00,,,0.00,WUHU216HW,2013-01-23 10:28:00,
2013-01-23 02:33:00,38.3,36.2,29.87,SSW,203,1.1,3.1,92,0.00,,,0.00,WUHU216HW,2013-01-23 10:33:00,
2013-01-23 02:38:00,38.3,36.2,29.87,SSW,203,2.0,3.1,92,0.00,,,0.00,WUHU216HW,2013-01-23 10:38:00,
2013-01-23 02:43:00,38.3,36.2,29.87,West,270,1.1,2.0,92,0.00,,,0.00,WUHU216HW,2013-01-23 10:43:00,
2013-01-23 02:48:00,38.5,36.4,29.87,SW,225,1.1,2.0,92,0.00,,,0.00,WUHU216HW,2013-01-23 10:48:00,
2013-01-23 02:53:00,38.5,36.4,29.86,SW,225,1.8,1.8,92,0.00,,,0.00,WUHU216HW,2013-01-23 10:53:00,
2013-01-23 02:58:00,38.5,36.4,29.87,SE,135,1.6,1.8,92,0.00,,,0.00,WUHU216HW,2013-01-23 10:58:00,
2013-01-23 03:03:00,38.5,36.1,29.86,SSE,158,2.0,2.0,91,0.00,,,0.00,WUHU216HW,2013-01-23 11:03:00,
2013-01-23 03:08:00,38.5,36.1,29.84,NNW,338,1.6,2.5,91,0.00,,,0.00,WUHU216HW,2013-01-23 11:08:00,
2013-01-23 03:13:00,38.5,36.1,29.84,East,90,1.8,2.5,91,0.00,,,0.00,WUHU216HW,2013-01-23 11:13:00,
2013-01-23 03:18:00,38.5,36.1,29.87,ENE,68,1.3,6.0,91,0.00,,,0.00,WUHU216HW,2013-01-23 11:18:00,
2013-01-23 03:23:00,38.5,36.1,29.88,SE,135,3.4,6.0,91,0.00,,,0.00,WUHU216HW,2013-01-23 11:23:00,
2013-01-23 03:28:00,38.5,35.8,29.88,SE,135,3.4,4.0,90,0.00,,,0.00,WUHU216HW,2013-01-23 11:28:00,
2013-01-23 03:33:00,38.7,36.3,29.89,SSW,203,1.1,3.4,91,0.00,,,0.00,WUHU216HW,2013-01-23 11:33:00,
2013-01-23 03:38:00,38.9,36.2,29.88,WSW,248,2.5,3.4,90,0.00,,,0.00,WUHU216HW,2013-01-23 11:38:00,
2013-01-23 03:43:00,38.9,36.2,29.88,SW,225,4.0,4.0,90,0.00,,,0.00,WUHU216HW,2013-01-23 11:43:00,
2013-01-23 03:48:00,38.9,36.2,29.88,SSW,203,0.9,4.0,90,0.00,,,0.00,WUHU216HW,2013-01-23 11:48:00,
2013-01-23 03:53:00,38.9,36.2,29.87,SSE,158,0.0,4.0,90,0.00,,,0.00,WUHU216HW,2013-01-23 11:53:00,
2013-01-23 03:58:00,38.9,36.2,29.86,SSW,203,1.6,2.2,90,0.00,,,0.00,WUHU216HW,2013-01-23 11:58:00,
2013-01-23 04:03:00,38.7,36.0,29.86,WSW,248,2.0,2.0,90,0.00,,,0.00,WUHU216HW,2013-01-23 12:03:00,
2013-01-23 04:08:00,38.5,35.8,29.85,West,270,0.4,2.0,90,0.00,,,0.00,WUHU216HW,2013-01-23 12:08:00,
2013-01-23 04:13:00,38.5,35.8,29.84,West,270,0.0,2.0,90,0.00,,,0.00,WUHU216HW,2013-01-23 12:13:00,
2013-01-23 04:18:00,38.5,35.8,29.84,West,270,0.0,0.7,90,0.00,,,0.00,WUHU216HW,2013-01-23 12:18:00,
2013-01-23 04:23:00,38.5,35.8,29.84,ENE,68,0.7,0.7,90,0.00,,,0.00,WUHU216HW,2013-01-23 12:23:00,
2013-01-23 04:28:00,38.5,36.1,29.84,East,90,1.1,1.3,91,0.00,,,0.00,WUHU216HW,2013-01-23 12:28:00,
2013-01-23 04:33:00,38.5,35.8,29.85,East,90,1.1,4.0,90,0.00,,,0.00,WUHU216HW,2013-01-23 12:33:00,
2013-01-23 04:38:00,38.3,35.6,29.85,SW,225,3.8,4.0,90,0.00,,,0.00,WUHU216HW,2013-01-23 12:38:00,
2013-01-23 04:43:00,38.5,36.1,29.85,NNW,338,0.4,3.8,91,0.00,,,0.00,WUHU216HW,2013-01-23 12:43:00,
2013-01-23 04:48:00,38.5,36.1,29.84,WSW,248,1.3,3.1,91,0.00,,,0.00,WUHU216HW,2013-01-23 12:48:00,
2013-01-23 04:53:00,38.5,36.1,29.83,SSW,203,4.7,4.7,91,0.00,,,0.00,WUHU216HW,2013-01-23 12:53:00,
2013-01-23 04:58:00,38.5,36.1,29.83,East,90,1.1,4.7,91,0.00,,,0.00,WUHU216HW,2013-01-23 12:58:00,
2013-01-23 05:03:00,38.5,36.1,29.84,SE,135,1.1,4.7,91,0.00,,,0.00,WUHU216HW,2013-01-23 13:03:00,
2013-01-23 05:08:00,38.5,36.1,29.84,SSW,203,1.1,2.0,91,0.00,,,0.00,WUHU216HW,2013-01-23 13:08:00,
2013-01-23 05:13:00,38.7,36.3,29.83,SW,225,1.8,2.5,91,0.00,,,0.00,WUHU216HW,2013-01-23 13:13:00,
2013-01-23 05:18:00,38.9,36.2,29.83,SW,225,1.3,2.5,90,0.00,,,0.00,WUHU216HW,2013-01-23 13:18:00,
2013-01-23 05:23:00,38.9,36.2,29.83,SSW,203,2.5,2.5,90,0.00,,,0.00,WUHU216HW,2013-01-23 13:23:00,
2013-01-23 05:28:00,39.1,36.4,29.83,SSW,203,3.4,3.4,90,0.00,,,0.00,WUHU216HW,2013-01-23 13:28:00,
2013-01-23 05:33:00,39.1,36.4,29.83,SW,225,4.5,4.5,90,0.00,,,0.00,WUHU216HW,2013-01-23 13:33:00,
2013-01-23 05:38:00,39.1,36.4,29.83,South,180,0.7,4.5,90,0.00,,,0.00,WUHU216HW,2013-01-23 13:38:00,
2013-01-23 05:43:00,38.9,36.2,29.83,SSW,203,2.9,3.4,90,0.00,,,0.00,WUHU216HW,2013-01-23 13:43:00,
2013-01-23 05:48:00,38.9,36.2,29.81,SW,225,4.7,4.7,90,0.00,,,0.00,WUHU216HW,2013-01-23 13:48:00,
2013-01-23 05:53:00,39.1,36.4,29.81,SSW,203,2.5,5.4,90,0.00,,,0.00,WUHU216HW,2013-01-23 13:53:00,
2013-01-23 05:58:00,39.1,36.4,29.82,South,180,0.2,5.4,90,0.00,,,0.00,WUHU216HW,2013-01-23 13:58:00,
2013-01-23 06:03:00,39.1,36.6,29.82,SSW,203,2.5,2.5,91,0.00,,,0.00,WUHU216HW,2013-01-23 14:03:00,
2013-01-23 06:08:00,39.1,36.6,29.82,SSW,203,3.4,3.4,91,0.00,,,0.00,WUHU216HW,2013-01-23 14:08:00,
2013-01-23 06:13:00,39.1,36.6,29.82,SSW,203,3.1,3.4,91,0.00,,,0.00,WUHU216HW,2013-01-23 14:13:00,
2013-01-23 06:18:00,39.2,36.8,29.82,SSW,203,3.1,3.4,91,0.00,,,0.00,WUHU216HW,2013-01-23 14:18:00,
2013-01-23 06:23:00,39.2,36.8,29.82,SSW,203,2.0,3.4,91,0.00,,,0.00,WUHU216HW,2013-01-23 14:23:00,
2013-01-23 06:28:00,39.2,36.8,29.82,South,180,2.9,3.4,91,0.00,,,0.00,WUHU216HW,2013-01-23 14:28:00,
2013-01-23 06:33:00,39.2,36.8,29.81,SSW,203,2.9,3.1,91,0.00,,,0.00,WUHU216HW,2013-01-23 14:33:00,
2013-01-23 06:38:00,39.2,36.8,29.81,SW,225,1.6,3.4,91,0.00,,,0.00,WUHU216HW,2013-01-23 14:38:00,
2013-01-23 06:43:00,39.2,36.8,29.80,SSW,203,2.0,3.4,91,0.00,,,0.00,WUHU216HW,2013-01-23 14:43:00,
2013-01-23 06:48:00,39.2,36.8,29.81,South,180,2.5,2.5,91,0.00,,,0.00,WUHU216HW,2013-01-23 14:48:00,
2013-01-23 06:53:00,39.2,36.8,29.81,South,180,3.4,3.4,91,0.00,,,0.00,WUHU216HW,2013-01-23 14:53:00,
2013-01-23 06:58:00,39.2,36.8,29.80,SSW,203,1.8,3.4,91,0.00,,,0.00,WUHU216HW,2013-01-23 14:58:00,
2013-01-23 07:03:00,39.2,36.8,29.80,SSW,203,2.5,4.3,91,0.00,,,0.00,WUHU216HW,2013-01-23 15:03:00,
2013-01-23 07:08:00,39.2,36.8,29.80,WSW,248,0.2,4.3,91,0.00,,,0.00,WUHU216HW,2013-01-23 15:08:00,
2013-01-23 07:13:00,39.1,36.6,29.80,SSW,203,1.3,2.5,91,0.00,,,0.00,WUHU216HW,2013-01-23 15:13:00,
2013-01-23 07:18:00,39.1,36.6,29.80,SSW,203,1.8,2.2,91,0.00,,,0.00,WUHU216HW,2013-01-23 15:18:00,
2013-01-23 07:23:00,39.1,36.6,29.81,SSE,158,1.3,2.0,91,0.00,,,0.00,WUHU216HW,2013-01-23 15:23:00,
2013-01-23 07:28:00,39.1,36.6,29.80,South,180,4.7,6.0,91,0.00,,,0.00,WUHU216HW,2013-01-23 15:28:00,
2013-01-23 07:33:00,39.2,36.8,29.81,SSW,203,2.0,6.0,91,0.00,,,0.00,WUHU216HW,2013-01-23 15:33:00,
2013-01-23 07:38:00,39.6,36.9,29.81,South,180,1.6,5.1,90,0.00,,,0.00,WUHU216HW,2013-01-23 15:38:00,
2013-01-23 07:43:00,39.8,37.1,29.81,SSW,203,0.2,4.3,90,0.00,,,0.00,WUHU216HW,2013-01-23 15:43:00,
2013-01-23 07:48:00,40.0,37.3,29.81,South,180,3.4,3.4,90,0.00,,,0.00,WUHU216HW,2013-01-23 15:48:00,
2013-01-23 07:53:00,40.0,37.3,29.81,SW,225,1.3,4.0,90,0.00,,,0.00,WUHU216HW,2013-01-23 15:53:00,
2013-01-23 07:58:00,40.1,37.2,29.80,SSW,203,4.0,4.0,89,0.00,,,0.00,WUHU216HW,2013-01-23 15:58:00,
2013-01-23 08:03:00,40.1,37.2,29.80,SSW,203,1.3,4.0,89,0.00,,,0.00,WUHU216HW,2013-01-23 16:03:00,
2013-01-23 08:08:00,40.1,37.2,29.80,SSW,203,4.9,4.9,89,0.00,,,0.00,WUHU216HW,2013-01-23 16:08:00,
2013-01-23 08:13:00,40.3,37.4,29.80,SSW,203,4.7,4.9,89,0.00,,,0.00,WUHU216HW,2013-01-23 16:13:00,
2013-01-23 08:18:00,40.3,37.4,29.80,SSW,203,2.5,4.7,89,0.00,,,0.00,WUHU216HW,2013-01-23 16:18:00,
2013-01-23 08:24:00,40.3,37.4,29.80,SSE,158,1.1,4.7,89,0.00,,,0.00,WUHU216HW,2013-01-23 16:24:00,
2013-01-23 08:29:00,40.3,37.4,29.80,West,270,0.7,2.9,89,0.00,,,0.00,WUHU216HW,2013-01-23 16:29:00,
2013-01-23 08:34:00,40.1,37.2,29.80,SW,225,1.3,2.9,89,0.00,,,0.00,WUHU216HW,2013-01-23 16:34:00,
2013-01-23 08:39:00,40.1,37.2,29.80,SSE,158,0.4,1.3,89,0.00,,,0.00,WUHU216HW,2013-01-23 16:39:00,
2013-01-23 08:44:00,40.1,37.4,29.80,SW,225,1.3,1.8,90,0.00,,,0.00,WUHU216HW,2013-01-23 16:44:00,
2013-01-23 08:49:00,40.0,37.3,29.80,SSW,203,1.6,2.2,90,0.00,,,0.00,WUHU216HW,2013-01-23 16:49:00,
2013-01-23 08:54:00,40.0,37.3,29.80,SSW,203,1.3,2.7,90,0.00,,,0.00,WUHU216HW,2013-01-23 16:54:00,
2013-01-23 08:59:00,40.1,37.4,29.80,South,180,0.9,2.7,90,0.00,,,0.00,WUHU216HW,2013-01-23 16:59:00,
2013-01-23 09:04:00,40.0,37.3,29.81,ESE,113,0.9,2.5,90,0.00,,,0.00,WUHU216HW,2013-01-23 17:04:00,
2013-01-23 09:09:00,40.0,37.3,29.81,SSW,203,1.8,1.8,90,0.00,,,0.00,WUHU216HW,2013-01-23 17:09:00,
2013-01-23 09:14:00,40.1,37.4,29.81,SW,225,2.9,4.5,90,0.01,,,0.00,WUHU216HW,2013-01-23 17:14:00,
2013-01-23 09:19:00,40.1,37.4,29.81,NNW,338,0.4,4.5,90,0.01,,,0.01,WUHU216HW,2013-01-23 17:19:00,
2013-01-23 09:24:00,40.1,37.4,29.81,North,0,1.1,3.4,90,0.01,,,0.01,WUHU216HW,2013-01-23 17:24:00,
2013-01-23 09:29:00,40.1,37.7,29.81,SW,225,1.3,1.3,91,0.01,,,0.01,WUHU216HW,2013-01-23 17:29:00,
2013-01-23 09:34:00,40.1,37.7,29.81,SW,225,1.1,1.8,91,0.01,,,0.01,WUHU216HW,2013-01-23 17:34:00,
2013-01-23 09:39:00,40.3,37.9,29.80,North,0,0.4,1.8,91,0.02,,,0.02,WUHU216HW,2013-01-23 17:39:00,
2013-01-23 09:44:00,40.3,37.9,29.80,West,270,0.2,0.4,91,0.02,,,0.02,WUHU216HW,2013-01-23 17:44:00,
2013-01-23 09:49:00,40.3,38.2,29.80,ENE,68,0.9,0.9,92,0.02,,,0.02,WUHU216HW,2013-01-23 17:49:00,
2013-01-23 09:54:00,40.3,38.2,29.80,SE,135,1.3,1.3,92,0.02,,,0.02,WUHU216HW,2013-01-23 17:54:00,
2013-01-23 09:59:00,40.3,38.2,29.80,ESE,113,1.1,1.3,92,0.02,,,0.02,WUHU216HW,2013-01-23 17:59:00,
2013-01-23 10:04:00,40.3,38.2,29.80,South,180,3.4,3.4,92,0.02,,,0.02,WUHU216HW,2013-01-23 18:04:00,
2013-01-23 10:09:00,40.5,38.3,29.80,SW,225,1.3,3.4,92,0.02,,,0.02,WUHU216HW,2013-01-23 18:09:00,
2013-01-23 10:14:00,40.5,38.3,29.81,SSW,203,1.1,2.5,92,0.02,,,0.03,WUHU216HW,2013-01-23 18:14:00,
2013-01-23 10:19:00,40.7,38.8,29.81,SSW,203,1.3,2.5,93,0.02,,,0.03,WUHU216HW,2013-01-23 18:19:00,
2013-01-23 10:24:00,40.7,38.8,29.81,SSW,203,2.2,2.2,93,0.02,,,0.03,WUHU216HW,2013-01-23 18:24:00,
2013-01-23 10:29:00,40.7,38.8,29.81,South,180,0.7,2.5,93,0.02,,,0.03,WUHU216HW,2013-01-23 18:29:00,
2013-01-23 10:34:00,40.9,39.0,29.81,SSW,203,0.7,2.5,93,0.01,,,0.03,WUHU216HW,2013-01-23 18:34:00,
2013-01-23 10:39:00,41.0,39.2,29.80,SW,225,0.9,1.6,93,0.01,,,0.03,WUHU216HW,2013-01-23 18:39:00,
2013-01-23 10:44:00,41.0,39.2,29.81,South,180,1.6,2.7,93,0.01,,,0.03,WUHU216HW,2013-01-23 18:44:00,
2013-01-23 10:49:00,41.2,39.3,29.81,SW,225,1.1,2.7,93,0.01,,,0.03,WUHU216HW,2013-01-23 18:49:00,
2013-01-23 10:54:00,41.4,39.5,29.81,SE,135,0.2,2.2,93,0.01,,,0.03,WUHU216HW,2013-01-23 18:54:00,
2013-01-23 10:59:00,41.4,39.5,29.82,SSW,203,0.7,1.1,93,0.02,,,0.04,WUHU216HW,2013-01-23 18:59:00,
2013-01-23 11:04:00,41.6,39.7,29.82,SSW,203,2.0,2.0,93,0.02,,,0.04,WUHU216HW,2013-01-23 19:04:00,
2013-01-23 11:09:00,41.8,39.9,29.82,SW,225,2.0,4.0,93,0.03,,,0.04,WUHU216HW,2013-01-23 19:09:00,
2013-01-23 11:14:00,41.8,39.9,29.82,South,180,4.5,4.5,93,0.02,,,0.05,WUHU216HW,2013-01-23 19:14:00,
2013-01-23 11:19:00,41.8,39.9,29.82,SSW,203,2.5,4.5,93,0.02,,,0.05,WUHU216HW,2013-01-23 19:19:00,
2013-01-23 11:24:00,41.8,39.9,29.81,SSW,203,2.5,4.5,93,0.02,,,0.05,WUHU216HW,2013-01-23 19:24:00,
2013-01-23 11:29:00,41.8,39.9,29.81,SW,225,1.8,4.7,93,0.02,,,0.05,WUHU216HW,2013-01-23 19:29:00,
2013-01-23 11:34:00,41.8,39.9,29.81,SSW,203,2.5,4.3,93,0.03,,,0.06,WUHU216HW,2013-01-23 19:34:00,
2013-01-23 11:39:00,41.8,39.9,29.81,SW,225,2.5,4.3,93,0.03,,,0.06,WUHU216HW,2013-01-23 19:39:00,
2013-01-23 11:44:00,41.9,40.1,29.80,SSW,203,2.0,2.5,93,0.03,,,0.06,WUHU216HW,2013-01-23 19:44:00,
2013-01-23 11:49:00,41.9,40.1,29.80,SSW,203,2.2,2.5,93,0.04,,,0.07,WUHU216HW,2013-01-23 19:49:00,
2013-01-23 11:54:00,41.9,40.1,29.80,SSW,203,1.1,2.2,93,0.03,,,0.07,WUHU216HW,2013-01-23 19:54:00,
2013-01-23 11:59:00,42.1,40.2,29.79,SSW,203,2.5,2.5,93,0.03,,,0.07,WUHU216HW,2013-01-23 19:59:00,
2013-01-23 12:04:00,42.1,40.2,29.79,SW,225,1.1,2.5,93,0.03,,,0.07,WUHU216HW,2013-01-23 20:04:00,
2013-01-23 12:09:00,42.3,40.4,29.78,South,180,3.1,3.1,93,0.02,,,0.07,WUHU216HW,2013-01-23 20:09:00,
2013-01-23 12:14:00,42.5,40.6,29.79,West,270,0.0,3.1,93,0.02,,,0.07,WUHU216HW,2013-01-23 20:14:00,
2013-01-23 12:19:00,42.5,40.6,29.79,South,180,2.5,2.5,93,0.02,,,0.07,WUHU216HW,2013-01-23 20:19:00,
2013-01-23 12:24:00,42.5,40.6,29.79,SSE,158,0.4,2.5,93,0.02,,,0.07,WUHU216HW,2013-01-23 20:24:00,
2013-01-23 12:29:00,42.5,40.6,29.79,SSW,203,5.8,5.8,93,0.02,,,0.07,WUHU216HW,2013-01-23 20:29:00,
2013-01-23 12:34:00,42.5,40.6,29.78,SSW,203,1.8,5.8,93,0.02,,,0.08,WUHU216HW,2013-01-23 20:34:00,
2013-01-23 12:39:00,42.5,40.6,29.78,ENE,68,0.2,1.8,93,0.02,,,0.08,WUHU216HW,2013-01-23 20:39:00,
2013-01-23 12:44:00,42.5,40.6,29.78,East,90,1.6,1.8,93,0.02,,,0.08,WUHU216HW,2013-01-23 20:44:00,
2013-01-23 12:49:00,42.7,40.8,29.78,East,90,1.1,1.6,93,0.01,,,0.08,WUHU216HW,2013-01-23 20:49:00,
2013-01-23 12:54:00,42.7,40.8,29.78,South,180,1.1,1.8,93,0.02,,,0.09,WUHU216HW,2013-01-23 20:54:00,
2013-01-23 12:59:00,42.7,40.8,29.78,SW,225,1.1,1.8,93,0.02,,,0.09,WUHU216HW,2013-01-23 20:59:00,
2013-01-23 13:04:00,42.7,40.8,29.77,SW,225,0.4,1.1,93,0.02,,,0.09,WUHU216HW,2013-01-23 21:04:00,
2013-01-23 13:09:00,42.7,40.8,29.78,SSW,203,2.5,2.5,93,0.02,,,0.09,WUHU216HW,2013-01-23 21:09:00,
2013-01-23 13:14:00,42.7,40.8,29.77,ENE,68,1.1,2.5,93,0.02,,,0.09,WUHU216HW,2013-01-23 21:14:00,
2013-01-23 13:19:00,42.7,40.8,29.77,WSW,248,1.1,1.1,93,0.03,,,0.10,WUHU216HW,2013-01-23 21:19:00,
2013-01-23 13:24:00,42.7,40.8,29.78,SW,225,2.5,2.5,93,0.02,,,0.10,WUHU216HW,2013-01-23 21:24:00,
2013-01-23 13:29:00,42.7,40.8,29.78,SSW,203,0.9,2.5,93,0.02,,,0.10,WUHU216HW,2013-01-23 21:29:00,
2013-01-23 13:34:00,42.7,40.8,29.77,SSE,158,0.0,2.5,93,0.02,,,0.10,WUHU216HW,2013-01-23 21:34:00,
2013-01-23 13:39:00,42.7,40.8,29.78,SSW,203,1.1,1.1,93,0.02,,,0.10,WUHU216HW,2013-01-23 21:39:00,
2013-01-23 13:44:00,42.7,40.8,29.78,SW,225,0.9,1.3,93,0.02,,,0.10,WUHU216HW,2013-01-23 21:44:00,
2013-01-23 13:49:00,42.7,40.8,29.78,South,180,0.2,1.3,93,0.02,,,0.10,WUHU216HW,2013-01-23 21:49:00,
2013-01-23 13:54:00,42.7,40.8,29.78,SSW,203,0.9,0.9,93,0.02,,,0.11,WUHU216HW,2013-01-23 21:54:00,
2013-01-23 13:59:00,42.5,40.6,29.78,SSW,203,2.2,2.2,93,0.02,,,0.11,WUHU216HW,2013-01-23 21:59:00,
2013-01-23 14:04:00,42.5,40.6,29.78,SSW,203,0.0,2.2,93,0.03,,,0.12,WUHU216HW,2013-01-23 22:04:00,
2013-01-23 14:09:00,42.5,40.6,29.79,SSW,203,2.5,2.5,93,0.03,,,0.12,WUHU216HW,2013-01-23 22:09:00,
2013-01-23 14:14:00,42.3,40.4,29.79,SSW,203,1.8,2.5,93,0.02,,,0.12,WUHU216HW,2013-01-23 22:14:00,
2013-01-23 14:19:00,42.3,40.1,29.79,ESE,113,0.4,2.5,92,0.03,,,0.13,WUHU216HW,2013-01-23 22:19:00,
2013-01-23 14:24:00,42.1,40.0,29.80,ESE,113,0.4,1.8,92,0.03,,,0.13,WUHU216HW,2013-01-23 22:24:00,
2013-01-23 14:29:00,42.1,40.0,29.80,SSW,203,0.7,1.6,92,0.03,,,0.13,WUHU216HW,2013-01-23 22:29:00,
2013-01-23 14:34:00,42.1,40.0,29.80,SSW,203,0.0,1.8,92,0.04,,,0.14,WUHU216HW,2013-01-23 22:34:00,
2013-01-23 14:39:00,42.1,40.0,29.80,West,270,0.4,1.8,92,0.04,,,0.14,WUHU216HW,2013-01-23 22:39:00,
2013-01-23 14:44:00,42.1,40.0,29.80,South,180,1.1,1.1,92,0.04,,,0.14,WUHU216HW,2013-01-23 22:44:00,
2013-01-23 14:49:00,42.1,40.0,29.80,SSW,203,2.5,2.7,92,0.03,,,0.14,WUHU216HW,2013-01-23 22:49:00,
2013-01-23 14:54:00,41.9,39.8,29.80,WSW,248,0.4,2.7,92,0.04,,,0.14,WUHU216HW,2013-01-23 22:54:00,
2013-01-23 14:59:00,41.8,39.6,29.80,SE,135,1.8,2.0,92,0.04,,,0.15,WUHU216HW,2013-01-23 22:59:00,
2013-01-23 15:04:00,41.8,39.6,29.80,ESE,113,1.1,2.0,92,0.03,,,0.15,WUHU216HW,2013-01-23 23:04:00,
2013-01-23 15:09:00,41.8,39.6,29.81,SE,135,1.6,1.8,92,0.04,,,0.16,WUHU216HW,2013-01-23 23:09:00,
2013-01-23 15:14:00,41.8,39.6,29.81,ENE,68,1.1,1.8,92,0.04,,,0.16,WUHU216HW,2013-01-23 23:14:00,
2013-01-23 15:19:00,41.6,39.4,29.81,South,180,1.8,1.8,92,0.03,,,0.16,WUHU216HW,2013-01-23 23:19:00,
2013-01-23 15:24:00,41.4,39.2,29.81,ESE,113,1.1,3.4,92,0.04,,,0.17,WUHU216HW,2013-01-23 23:24:00,
2013-01-23 15:29:00,41.4,39.2,29.82,SE,135,2.2,3.4,92,0.03,,,0.17,WUHU216HW,2013-01-23 23:29:00,
2013-01-23 15:34:00,41.4,39.2,29.82,SE,135,4.7,4.7,92,0.03,,,0.17,WUHU216HW,2013-01-23 23:34:00,
2013-01-23 15:39:00,41.2,39.1,29.82,SSE,158,1.6,4.7,92,0.03,,,0.17,WUHU216HW,2013-01-23 23:39:00,
2013-01-23 15:44:00,41.0,38.9,29.82,South,180,3.1,4.7,92,0.03,,,0.17,WUHU216HW,2013-01-23 23:44:00,
2013-01-23 15:49:00,41.0,38.9,29.82,South,180,0.4,3.1,92,0.04,,,0.18,WUHU216HW,2013-01-23 23:49:00,
2013-01-23 15:54:00,40.9,38.7,29.83,SSE,158,1.8,3.1,92,0.03,,,0.18,WUHU216HW,2013-01-23 23:54:00,
2013-01-23 15:59:00,40.9,38.7,29.83,West,270,1.6,4.7,92,0.03,,,0.18,WUHU216HW,2013-01-23 23:59:00,
2013-01-23 16:04:00,40.7,38.5,29.82,SSE,158,5.4,5.4,92,0.02,,,0.18,WUHU216HW,2013-01-24 00:04:00,
2013-01-23 16:09:00,40.7,38.5,29.83,NNE,23,0.7,5.4,92,0.02,,,0.18,WUHU216HW,2013-01-24 00:09:00,
2013-01-23 16:14:00,40.7,38.5,29.83,East,90,1.8,3.4,92,0.02,,,0.18,WUHU216HW,2013-01-24 00:14:00,
2013-01-23 16:19:00,40.7,38.8,29.83,SSE,158,2.2,2.5,93,0.02,,,0.19,WUHU216HW,2013-01-24 00:19:00,
2013-01-23 16:24:00,40.7,38.8,29.83,South,180,2.7,2.7,93,0.02,,,0.19,WUHU216HW,2013-01-24 00:24:00,
2013-01-23 16:29:00,40.5,38.6,29.83,SE,135,6.0,6.0,93,0.02,,,0.19,WUHU216HW,2013-01-24 00:29:00,
2013-01-23 16:34:00,40.5,38.6,29.83,SSE,158,0.4,6.0,93,0.02,,,0.19,WUHU216HW,2013-01-24 00:34:00,
2013-01-23 16:39:00,40.5,38.6,29.83,SSE,158,2.9,6.0,93,0.02,,,0.19,WUHU216HW,2013-01-24 00:39:00,
2013-01-23 16:44:00,40.5,38.6,29.84,East,90,1.1,2.9,93,0.02,,,0.19,WUHU216HW,2013-01-24 00:44:00,
2013-01-23 16:49:00,40.5,38.6,29.84,SW,225,0.4,2.9,93,0.01,,,0.19,WUHU216HW,2013-01-24 00:49:00,
2013-01-23 16:54:00,40.5,38.6,29.85,SSW,203,2.5,2.5,93,0.01,,,0.19,WUHU216HW,2013-01-24 00:54:00,
2013-01-23 16:59:00,40.5,38.6,29.85,ENE,68,1.1,2.5,93,0.01,,,0.19,WUHU216HW,2013-01-24 00:59:00,
2013-01-23 17:04:00,40.5,38.6,29.85,ESE,113,2.5,2.9,93,0.01,,,0.19,WUHU216HW,2013-01-24 01:04:00,
2013-01-23 17:09:00,40.5,38.6,29.85,SW,225,1.6,2.9,93,0.01,,,0.19,WUHU216HW,2013-01-24 01:09:00,
2013-01-23 17:14:00,40.5,38.6,29.85,South,180,3.4,3.4,93,0.01,,,0.19,WUHU216HW,2013-01-24 01:14:00,
2013-01-23 17:19:00,40.5,38.6,29.86,ESE,113,1.8,3.4,93,0.00,,,0.19,WUHU216HW,2013-01-24 01:19:00,
2013-01-23 17:24:00,40.5,38.6,29.86,SE,135,0.0,3.4,93,0.00,,,0.19,WUHU216HW,2013-01-24 01:24:00,
2013-01-23 17:29:00,40.5,38.6,29.86,SSE,158,1.3,2.2,93,0.00,,,0.19,WUHU216HW,2013-01-24 01:29:00,
2013-01-23 17:34:00,40.5,38.6,29.87,SSW,203,2.0,2.7,93,0.00,,,0.19,WUHU216HW,2013-01-24 01:34:00,
2013-01-23 17:39:00,40.5,38.6,29.87,SW,225,0.4,2.7,93,0.00,,,0.19,WUHU216HW,2013-01-24 01:39:00,
2013-01-23 17:44:00,40.5,38.6,29.87,South,180,3.4,3.4,93,0.00,,,0.19,WUHU216HW,2013-01-24 01:44:00,
2013-01-23 17:49:00,40.5,38.6,29.87,SW,225,1.8,3.4,93,0.00,,,0.19,WUHU216HW,2013-01-24 01:49:00,
2013-01-23 17:54:00,40.5,38.6,29.87,ESE,113,0.0,1.8,93,0.00,,,0.19,WUHU216HW,2013-01-24 01:54:00,
2013-01-23 17:59:00,40.5,38.6,29.87,NNE,23,0.0,0.7,93,0.00,,,0.19,WUHU216HW,2013-01-24 01:59:00,
2013-01-23 18:04:00,40.5,38.6,29.88,WSW,248,0.9,0.9,93,0.00,,,0.19,WUHU216HW,2013-01-24 02:04:00,
2013-01-23 18:09:00,40.5,38.6,29.88,SSW,203,0.2,0.9,93,0.00,,,0.19,WUHU216HW,2013-01-24 02:09:00,
2013-01-23 18:14:00,40.5,38.6,29.88,NW,315,0.4,0.9,93,0.00,,,0.19,WUHU216HW,2013-01-24 02:14:00,
2013-01-23 18:19:00,40.5,38.6,29.88,SE,135,0.0,0.7,93,0.00,,,0.19,WUHU216HW,2013-01-24 02:19:00,
2013-01-23 18:24:00,40.7,38.8,29.88,SE,135,0.0,0.4,93,0.00,,,0.19,WUHU216HW,2013-01-24 02:24:00,
2013-01-23 18:29:00,40.7,38.8,29.88,SE,135,0.0,0.0,93,0.00,,,0.19,WUHU216HW,2013-01-24 02:29:00,
2013-01-23 18:34:00,40.7,38.8,29.88,SE,135,0.0,0.0,93,0.00,,,0.19,WUHU216HW,2013-01-24 02:34:00,
2013-01-23 18:39:00,40.7,38.8,29.89,SE,135,0.0,0.0,93,0.00,,,0.19,WUHU216HW,2013-01-24 02:39:00,
2013-01-23 18:44:00,40.7,38.8,29.89,SE,135,0.0,0.0,93,0.00,,,0.19,WUHU216HW,2013-01-24 02:44:00,
2013-01-23 18:49:00,40.7,38.8,29.90,SE,135,0.0,0.0,93,0.00,,,0.19,WUHU216HW,2013-01-24 02:49:00,
2013-01-23 18:54:00,40.7,38.8,29.90,SE,135,0.0,0.0,93,0.00,,,0.19,WUHU216HW,2013-01-24 02:54:00,
2013-01-23 18:59:00,40.7,38.8,29.90,SSE,158,0.4,0.9,93,0.00,,,0.19,WUHU216HW,2013-01-24 02:59:00,
2013-01-23 19:04:00,40.7,39.1,29.91,SSE,158,0.4,0.9,94,0.00,,,0.19,WUHU216HW,2013-01-24 03:04:00,
2013-01-23 19:09:00,40.7,39.1,29.91,SE,135,0.2,0.4,94,0.00,,,0.19,WUHU216HW,2013-01-24 03:09:00,
2013-01-23 19:14:00,40.7,39.1,29.91,SE,135,2.0,2.0,94,0.00,,,0.19,WUHU216HW,2013-01-24 03:14:00,
2013-01-23 19:19:00,40.7,39.1,29.91,South,180,0.0,2.0,94,0.00,,,0.19,WUHU216HW,2013-01-24 03:19:00,
2013-01-23 19:24:00,40.7,39.1,29.91,SSW,203,0.0,0.4,94,0.00,,,0.19,WUHU216HW,2013-01-24 03:24:00,
2013-01-23 19:29:00,40.9,39.2,29.91,South,180,0.4,0.4,94,0.00,,,0.19,WUHU216HW,2013-01-24 03:29:00,
2013-01-23 19:34:00,40.7,39.1,29.92,SSW,203,0.9,1.8,94,0.00,,,0.19,WUHU216HW,2013-01-24 03:34:00,
2013-01-23 19:39:00,40.7,39.1,29.92,ENE,68,0.2,1.8,94,0.00,,,0.19,WUHU216HW,2013-01-24 03:39:00,
2013-01-23 19:44:00,40.7,39.1,29.92,ESE,113,0.4,1.8,94,0.00,,,0.19,WUHU216HW,2013-01-24 03:44:00,
2013-01-23 19:49:00,40.7,39.1,29.93,SSW,203,1.1,1.8,94,0.00,,,0.19,WUHU216HW,2013-01-24 03:49:00,
2013-01-23 19:54:00,40.7,39.1,29.93,SSW,203,0.7,1.1,94,0.00,,,0.19,WUHU216HW,2013-01-24 03:54:00,
2013-01-23 19:59:00,40.7,39.1,29.94,SE,135,1.3,2.5,94,0.00,,,0.19,WUHU216HW,2013-01-24 03:59:00,
2013-01-23 20:04:00,40.7,39.1,29.94,SE,135,4.7,4.7,94,0.00,,,0.19,WUHU216HW,2013-01-24 04:04:00,
2013-01-23 20:09:00,40.7,39.1,29.94,ESE,113,1.1,4.7,94,0.00,,,0.19,WUHU216HW,2013-01-24 04:09:00,
2013-01-23 20:14:00,40.7,39.1,29.95,SE,135,0.4,4.7,94,0.00,,,0.19,WUHU216HW,2013-01-24 04:14:00,
2013-01-23 20:19:00,40.9,39.2,29.95,SE,135,0.4,3.4,94,0.00,,,0.19,WUHU216HW,2013-01-24 04:19:00,
2013-01-23 20:24:00,40.9,39.2,29.96,SE,135,2.2,3.4,94,0.00,,,0.19,WUHU216HW,2013-01-24 04:24:00,
2013-01-23 20:29:00,40.9,39.2,29.96,ESE,113,1.1,3.4,94,0.00,,,0.19,WUHU216HW,2013-01-24 04:29:00,
2013-01-23 20:34:00,40.7,39.1,29.96,SE,135,2.0,3.4,94,0.00,,,0.19,WUHU216HW,2013-01-24 04:34:00,
2013-01-23 20:39:00,40.9,39.2,29.96,SSW,203,1.8,3.1,94,0.00,,,0.19,WUHU216HW,2013-01-24 04:39:00,
2013-01-23 20:44:00,40.9,39.2,29.97,SE,135,0.4,3.1,94,0.00,,,0.19,WUHU216HW,2013-01-24 04:44:00,
2013-01-23 20:49:00,40.9,39.2,29.97,ESE,113,1.3,1.8,94,0.00,,,0.19,WUHU216HW,2013-01-24 04:49:00,
2013-01-23 20:54:00,40.9,39.2,29.97,SE,135,3.6,3.6,94,0.00,,,0.19,WUHU216HW,2013-01-24 04:54:00,
2013-01-23 20:59:00,41.0,39.7,29.98,SSW,203,2.0,3.6,95,0.00,,,0.19,WUHU216HW,2013-01-24 04:59:00,
2013-01-23 21:00:00,41.0,39.7,29.98,SSW,203,2.0,3.6,95,0.00,,,0.19,WUHU216HW,2013-01-24 05:00:00,
2013-01-23 21:03:00,41.0,39.7,29.98,SSW,203,2.0,3.6,95,0.00,,,0.19,WUHU216HW,2013-01-24 05:03:00,
2013-01-23 21:08:00,41.2,39.9,29.98,SSE,158,1.1,2.0,95,0.00,,,0.19,WUHU216HW,2013-01-24 05:08:00,
2013-01-23 21:13:00,41.2,39.9,29.98,SE,135,1.8,2.5,95,0.00,,,0.19,WUHU216HW,2013-01-24 05:13:00,
2013-01-23 21:18:00,41.2,39.9,29.98,SSW,203,2.7,2.9,95,0.00,,,0.19,WUHU216HW,2013-01-24 05:18:00,
2013-01-23 21:23:00,41.0,39.7,29.98,ESE,113,2.9,3.8,95,0.00,,,0.19,WUHU216HW,2013-01-24 05:23:00,
2013-01-23 21:28:00,41.0,39.7,29.99,SE,135,3.6,3.8,95,0.00,,,0.19,WUHU216HW,2013-01-24 05:28:00,
2013-01-23 21:33:00,41.0,39.7,29.99,South,180,3.6,6.5,95,0.00,,,0.19,WUHU216HW,2013-01-24 05:33:00,
2013-01-23 21:38:00,41.0,39.7,30.00,SW,225,0.7,6.5,95,0.00,,,0.19,WUHU216HW,2013-01-24 05:38:00,
2013-01-23 21:43:00,41.2,39.9,29.99,SW,225,1.1,4.0,95,0.00,,,0.19,WUHU216HW,2013-01-24 05:43:00,
2013-01-23 21:48:00,41.0,39.4,29.99,SSW,203,2.5,2.5,94,0.00,,,0.19,WUHU216HW,2013-01-24 05:48:00,
2013-01-23 21:53:00,41.0,39.4,30.00,SSW,203,1.6,4.5,94,0.00,,,0.19,WUHU216HW,2013-01-24 05:53:00,
2013-01-23 21:58:00,41.0,39.4,30.00,East,90,5.4,5.4,94,0.00,,,0.19,WUHU216HW,2013-01-24 05:58:00,
2013-01-23 22:03:00,41.0,39.4,30.01,SW,225,0.9,5.4,94,0.00,,,0.19,WUHU216HW,2013-01-24 06:03:00,
2013-01-23 22:08:00,40.9,39.2,30.01,SSE,158,1.6,3.8,94,0.00,,,0.19,WUHU216HW,2013-01-24 06:08:00,
2013-01-23 22:13:00,40.9,39.2,30.01,SSE,158,3.1,4.3,94,0.00,,,0.19,WUHU216HW,2013-01-24 06:13:00,
2013-01-23 22:18:00,40.9,39.2,30.01,ESE,113,2.2,4.3,94,0.00,,,0.19,WUHU216HW,2013-01-24 06:18:00,
2013-01-23 22:23:00,40.9,39.2,30.01,SSW,203,1.6,3.4,94,0.00,,,0.19,WUHU216HW,2013-01-24 06:23:00,
2013-01-23 22:28:00,40.7,39.1,30.02,SSW,203,2.0,3.6,94,0.00,,,0.19,WUHU216HW,2013-01-24 06:28:00,
2013-01-23 22:33:00,40.9,39.2,30.02,East,90,1.1,3.6,94,0.00,,,0.19,WUHU216HW,2013-01-24 06:33:00,
2013-01-23 22:38:00,40.7,39.1,30.02,ENE,68,1.1,3.6,94,0.00,,,0.19,WUHU216HW,2013-01-24 06:38:00,
2013-01-23 22:43:00,40.9,39.2,30.02,SW,225,1.6,3.6,94,0.00,,,0.19,WUHU216HW,2013-01-24 06:43:00,
2013-01-23 22:48:00,40.9,39.2,30.02,SE,135,1.1,2.5,94,0.00,,,0.19,WUHU216HW,2013-01-24 06:48:00,
2013-01-23 22:53:00,40.9,39.2,30.03,South,180,1.6,2.5,94,0.00,,,0.19,WUHU216HW,2013-01-24 06:53:00,
2013-01-23 22:58:00,41.0,39.4,30.03,SSW,203,2.0,2.7,94,0.00,,,0.19,WUHU216HW,2013-01-24 06:58:00,
2013-01-23 23:03:00,41.0,39.4,30.03,ESE,113,2.2,5.4,94,0.00,,,0.19,WUHU216HW,2013-01-24 07:03:00,
2013-01-23 23:08:00,41.0,39.4,30.03,South,180,1.8,5.4,94,0.00,,,0.19,WUHU216HW,2013-01-24 07:08:00,
2013-01-23 23:13:00,41.0,39.4,30.04,WSW,248,2.5,4.0,94,0.00,,,0.19,WUHU216HW,2013-01-24 07:13:00,
2013-01-23 23:18:00,41.2,39.6,30.04,SE,135,0.9,4.0,94,0.00,,,0.19,WUHU216HW,2013-01-24 07:18:00,
2013-01-23 23:23:00,41.2,39.6,30.04,ENE,68,2.7,4.0,94,0.00,,,0.19,WUHU216HW,2013-01-24 07:23:00,
2013-01-23 23:28:00,41.2,39.6,30.05,SE,135,1.8,4.5,94,0.00,,,0.19,WUHU216HW,2013-01-24 07:28:00,
2013-01-23 23:33:00,41.4,39.8,30.05,South,180,0.9,4.5,94,0.00,,,0.19,WUHU216HW,2013-01-24 07:33:00,
2013-01-23 23:38:00,41.4,39.8,30.05,SE,135,1.1,3.6,94,0.00,,,0.19,WUHU216HW,2013-01-24 07:38:00,
2013-01-23 23:43:00,41.4,39.8,30.06,ESE,113,1.1,4.7,94,0.00,,,0.19,WUHU216HW,2013-01-24 07:43:00,
2013-01-23 23:48:00,41.4,39.8,30.06,ENE,68,0.0,4.7,94,0.00,,,0.19,WUHU216HW,2013-01-24 07:48:00,
2013-01-23 23:53:00,41.4,39.8,30.06,SSE,158,1.6,2.0,94,0.00,,,0.19,WUHU216HW,2013-01-24 07:53:00,
2013-01-23 23:58:00,41.4,39.8,30.06,SSE,158,1.8,1.8,94,0.00,,,0.19,WUHU216HW,2013-01-24 07:58:00,